sensor_id;sensor_type;location;lat;lon;timestamp;temperature;humidity
15916;DHT22;8057;47.830;-3.870;2023-04-24T00:03:34;10.90;99.90
15916;DHT22;8057;47.830;-3.870;2023-04-24T00:17:28;10.70;99.90
15916;DHT22;8057;47.830;-3.870;2023-04-24T00:21:49;10.70;99.90
15916;DHT22;8057;47.830;-3.870;2023-04-24T00:26:06;10.70;99.90
15916;DHT22;8057;47.830;-3.870;2023-04-24T00:31:06;10.70;99.90
15916;DHT22;8057;47.830;-3.870;2023-04-24T00:40:55;10.80;99.90
15916;DHT22;8057;47.830;-3.870;2023-04-24T00:45:43;10.80;99.90
15916;DHT22;8057;47.830;-3.870;2023-04-24T00:50:07;10.70;99.90
15916;DHT22;8057;47.830;-3.870;2023-04-24T00:54:27;10.70;99.90
15916;DHT22;8057;47.830;-3.870;2023-04-24T00:59:08;10.70;99.90
15916;DHT22;8057;47.830;-3.870;2023-04-24T01:03:19;10.70;99.90
15916;DHT22;8057;47.830;-3.870;2023-04-24T01:07:41;10.80;99.90
15916;DHT22;8057;47.830;-3.870;2023-04-24T01:11:58;10.80;99.90
15916;DHT22;8057;47.830;-3.870;2023-04-24T01:16:27;10.80;99.90
15916;DHT22;8057;47.830;-3.870;2023-04-24T01:20:42;10.80;99.90
15916;DHT22;8057;47.830;-3.870;2023-04-24T01:25:25;10.90;99.90
15916;DHT22;8057;47.830;-3.870;2023-04-24T01:29:49;10.80;99.90
15916;DHT22;8057;47.830;-3.870;2023-04-24T01:34:04;10.90;99.90
15916;DHT22;8057;47.830;-3.870;2023-04-24T01:38:28;10.70;99.90
15916;DHT22;8057;47.830;-3.870;2023-04-24T01:43:05;10.90;99.90
15916;DHT22;8057;47.830;-3.870;2023-04-24T01:47:44;10.90;99.90
15916;DHT22;8057;47.830;-3.870;2023-04-24T01:52:09;10.90;99.90
15916;DHT22;8057;47.830;-3.870;2023-04-24T01:56:36;10.80;99.90
15916;DHT22;8057;47.830;-3.870;2023-04-24T02:01:29;10.90;99.90
15916;DHT22;8057;47.830;-3.870;2023-04-24T02:06:32;10.80;99.90
15916;DHT22;8057;47.830;-3.870;2023-04-24T02:11:05;10.80;99.90
15916;DHT22;8057;47.830;-3.870;2023-04-24T02:15:39;10.90;99.90
15916;DHT22;8057;47.830;-3.870;2023-04-24T02:20:06;10.90;99.90
15916;DHT22;8057;47.830;-3.870;2023-04-24T02:24:58;11.00;99.90
15916;DHT22;8057;47.830;-3.870;2023-04-24T02:29:36;11.00;99.90
15916;DHT22;8057;47.830;-3.870;2023-04-24T02:59:59;11.00;99.90
15916;DHT22;8057;47.830;-3.870;2023-04-24T03:04:48;11.00;99.90
15916;DHT22;8057;47.830;-3.870;2023-04-24T03:13:36;10.90;99.90
15916;DHT22;8057;47.830;-3.870;2023-04-24T03:17:51;10.80;99.90
15916;DHT22;8057;47.830;-3.870;2023-04-24T03:22:03;10.70;99.90
15916;DHT22;8057;47.830;-3.870;2023-04-24T03:26:33;10.80;99.90
15916;DHT22;8057;47.830;-3.870;2023-04-24T03:31:10;10.80;99.90
15916;DHT22;8057;47.830;-3.870;2023-04-24T03:40:30;10.90;99.90
15916;DHT22;8057;47.830;-3.870;2023-04-24T03:44:55;10.90;99.90
15916;DHT22;8057;47.830;-3.870;2023-04-24T03:49:34;11.00;99.90
15916;DHT22;8057;47.830;-3.870;2023-04-24T03:54:06;11.00;99.90
15916;DHT22;8057;47.830;-3.870;2023-04-24T04:03:13;11.10;99.90
15916;DHT22;8057;47.830;-3.870;2023-04-24T04:07:24;11.20;99.90
15916;DHT22;8057;47.830;-3.870;2023-04-24T04:11:48;11.30;99.90
15916;DHT22;8057;47.830;-3.870;2023-04-24T04:15:57;11.20;99.90
15916;DHT22;8057;47.830;-3.870;2023-04-24T04:20:09;11.20;99.90
15916;DHT22;8057;47.830;-3.870;2023-04-24T04:24:24;11.20;99.90
15916;DHT22;8057;47.830;-3.870;2023-04-24T04:28:34;11.20;99.90
15916;DHT22;8057;47.830;-3.870;2023-04-24T04:32:43;11.30;99.90
15916;DHT22;8057;47.830;-3.870;2023-04-24T04:36:55;11.20;99.90
15916;DHT22;8057;47.830;-3.870;2023-04-24T04:41:11;11.20;99.90
15916;DHT22;8057;47.830;-3.870;2023-04-24T04:45:28;11.20;99.90
15916;DHT22;8057;47.830;-3.870;2023-04-24T04:49:38;11.10;99.90
15916;DHT22;8057;47.830;-3.870;2023-04-24T04:53:50;11.10;99.90
15916;DHT22;8057;47.830;-3.870;2023-04-24T04:58:01;11.00;99.90
15916;DHT22;8057;47.830;-3.870;2023-04-24T05:02:15;10.90;99.90
15916;DHT22;8057;47.830;-3.870;2023-04-24T05:06:26;10.90;99.90
15916;DHT22;8057;47.830;-3.870;2023-04-24T05:10:37;10.80;99.90
15916;DHT22;8057;47.830;-3.870;2023-04-24T05:14:48;10.80;99.90
15916;DHT22;8057;47.830;-3.870;2023-04-24T05:18:59;10.80;99.90
15916;DHT22;8057;47.830;-3.870;2023-04-24T05:23:08;10.90;99.90
15916;DHT22;8057;47.830;-3.870;2023-04-24T05:27:22;10.80;99.90
15916;DHT22;8057;47.830;-3.870;2023-04-24T05:31:33;10.80;99.90
15916;DHT22;8057;47.830;-3.870;2023-04-24T05:35:42;10.80;99.90
15916;DHT22;8057;47.830;-3.870;2023-04-24T05:39:57;10.80;99.90
15916;DHT22;8057;47.830;-3.870;2023-04-24T05:44:09;10.80;99.90
15916;DHT22;8057;47.830;-3.870;2023-04-24T05:48:20;10.80;99.90
15916;DHT22;8057;47.830;-3.870;2023-04-24T05:52:30;10.80;99.90
15916;DHT22;8057;47.830;-3.870;2023-04-24T05:56:40;10.80;99.90
15916;DHT22;8057;47.830;-3.870;2023-04-24T06:00:51;10.90;99.90
15916;DHT22;8057;47.830;-3.870;2023-04-24T06:05:01;10.90;99.90
15916;DHT22;8057;47.830;-3.870;2023-04-24T06:09:11;10.90;99.90
15916;DHT22;8057;47.830;-3.870;2023-04-24T06:13:21;10.90;99.90
15916;DHT22;8057;47.830;-3.870;2023-04-24T06:17:32;11.00;99.90
15916;DHT22;8057;47.830;-3.870;2023-04-24T06:21:42;11.00;99.90
15916;DHT22;8057;47.830;-3.870;2023-04-24T06:25:52;11.10;99.90
15916;DHT22;8057;47.830;-3.870;2023-04-24T06:30:01;11.10;99.90
15916;DHT22;8057;47.830;-3.870;2023-04-24T06:34:12;11.10;99.90
15916;DHT22;8057;47.830;-3.870;2023-04-24T06:38:22;11.10;99.90
15916;DHT22;8057;47.830;-3.870;2023-04-24T06:42:33;11.10;99.90
15916;DHT22;8057;47.830;-3.870;2023-04-24T06:46:42;11.20;99.90
15916;DHT22;8057;47.830;-3.870;2023-04-24T06:51:07;11.20;99.90
15916;DHT22;8057;47.830;-3.870;2023-04-24T06:55:16;11.20;99.90
15916;DHT22;8057;47.830;-3.870;2023-04-24T06:59:25;11.30;99.90
15916;DHT22;8057;47.830;-3.870;2023-04-24T07:03:35;11.40;99.90
15916;DHT22;8057;47.830;-3.870;2023-04-24T07:07:46;11.60;99.90
15916;DHT22;8057;47.830;-3.870;2023-04-24T07:12:20;11.70;99.90
15916;DHT22;8057;47.830;-3.870;2023-04-24T07:16:29;11.80;99.90
15916;DHT22;8057;47.830;-3.870;2023-04-24T07:20:39;11.80;99.90
15916;DHT22;8057;47.830;-3.870;2023-04-24T07:24:50;11.90;99.90
15916;DHT22;8057;47.830;-3.870;2023-04-24T07:28:59;11.90;99.90
15916;DHT22;8057;47.830;-3.870;2023-04-24T07:33:08;12.00;99.90
15916;DHT22;8057;47.830;-3.870;2023-04-24T07:37:20;12.20;99.90
15916;DHT22;8057;47.830;-3.870;2023-04-24T07:41:32;12.30;99.90
15916;DHT22;8057;47.830;-3.870;2023-04-24T07:46:01;12.40;99.90
15916;DHT22;8057;47.830;-3.870;2023-04-24T07:50:15;12.50;99.90
15916;DHT22;8057;47.830;-3.870;2023-04-24T07:54:26;12.60;99.90
15916;DHT22;8057;47.830;-3.870;2023-04-24T07:58:40;12.70;99.90
15916;DHT22;8057;47.830;-3.870;2023-04-24T08:02:48;12.90;99.90
15916;DHT22;8057;47.830;-3.870;2023-04-24T08:06:58;12.90;99.90
15916;DHT22;8057;47.830;-3.870;2023-04-24T08:11:09;13.00;99.90
15916;DHT22;8057;47.830;-3.870;2023-04-24T08:15:19;13.10;99.90
15916;DHT22;8057;47.830;-3.870;2023-04-24T08:19:29;13.20;99.90
15916;DHT22;8057;47.830;-3.870;2023-04-24T08:23:43;13.40;99.90
15916;DHT22;8057;47.830;-3.870;2023-04-24T08:28:03;13.50;99.90
15916;DHT22;8057;47.830;-3.870;2023-04-24T08:32:45;13.70;99.90
15916;DHT22;8057;47.830;-3.870;2023-04-24T08:37:26;13.80;99.90
15916;DHT22;8057;47.830;-3.870;2023-04-24T08:41:44;14.10;99.90
15916;DHT22;8057;47.830;-3.870;2023-04-24T08:45:56;14.10;99.90
15916;DHT22;8057;47.830;-3.870;2023-04-24T09:56:07;13.60;99.90
15916;DHT22;8057;47.830;-3.870;2023-04-24T10:41:11;16.20;99.90
15916;DHT22;8057;47.830;-3.870;2023-04-24T10:50:10;16.00;99.90
15916;DHT22;8057;47.830;-3.870;2023-04-24T14:23:23;16.90;99.90
15916;DHT22;8057;47.830;-3.870;2023-04-24T14:27:34;16.90;99.90
15916;DHT22;8057;47.830;-3.870;2023-04-24T14:32:19;17.00;99.90
15916;DHT22;8057;47.830;-3.870;2023-04-24T14:36:29;17.30;99.90
15916;DHT22;8057;47.830;-3.870;2023-04-24T14:40:45;17.50;99.90
15916;DHT22;8057;47.830;-3.870;2023-04-24T14:44:59;17.40;99.90
15916;DHT22;8057;47.830;-3.870;2023-04-24T14:49:09;16.90;99.90
15916;DHT22;8057;47.830;-3.870;2023-04-24T14:53:21;16.70;99.90
15916;DHT22;8057;47.830;-3.870;2023-04-24T14:57:41;16.70;99.90
15916;DHT22;8057;47.830;-3.870;2023-04-24T15:01:50;16.50;99.90
15916;DHT22;8057;47.830;-3.870;2023-04-24T15:06:15;16.70;99.90
15916;DHT22;8057;47.830;-3.870;2023-04-24T15:10:28;16.60;99.90
15916;DHT22;8057;47.830;-3.870;2023-04-24T16:17:08;16.90;99.90
15916;DHT22;8057;47.830;-3.870;2023-04-24T16:26:15;16.70;99.90
15916;DHT22;8057;47.830;-3.870;2023-04-24T16:30:49;16.80;99.90
15916;DHT22;8057;47.830;-3.870;2023-04-24T18:17:32;14.90;99.90
15916;DHT22;8057;47.830;-3.870;2023-04-24T18:21:42;14.60;99.90
15916;DHT22;8057;47.830;-3.870;2023-04-24T18:25:52;14.40;99.90
15916;DHT22;8057;47.830;-3.870;2023-04-24T18:30:02;14.30;99.90
15916;DHT22;8057;47.830;-3.870;2023-04-24T18:34:16;14.20;99.90
15916;DHT22;8057;47.830;-3.870;2023-04-24T18:38:41;14.10;99.90
15916;DHT22;8057;47.830;-3.870;2023-04-24T18:47:37;13.90;99.90
15916;DHT22;8057;47.830;-3.870;2023-04-24T18:52:26;13.80;99.90
15916;DHT22;8057;47.830;-3.870;2023-04-24T19:01:50;13.40;99.90
15916;DHT22;8057;47.830;-3.870;2023-04-24T19:06:00;13.30;99.90
15916;DHT22;8057;47.830;-3.870;2023-04-24T19:10:12;13.20;99.90
15916;DHT22;8057;47.830;-3.870;2023-04-24T19:14:25;13.10;99.90
15916;DHT22;8057;47.830;-3.870;2023-04-24T19:23:15;12.80;99.90
15916;DHT22;8057;47.830;-3.870;2023-04-24T19:38:21;12.30;99.90
15916;DHT22;8057;47.830;-3.870;2023-04-24T19:42:48;12.30;99.90
15916;DHT22;8057;47.830;-3.870;2023-04-24T19:47:47;12.20;99.90
15916;DHT22;8057;47.830;-3.870;2023-04-24T19:52:11;12.20;99.90
15916;DHT22;8057;47.830;-3.870;2023-04-24T20:01:08;11.90;99.90
15916;DHT22;8057;47.830;-3.870;2023-04-24T20:05:32;11.90;99.90
15916;DHT22;8057;47.830;-3.870;2023-04-24T20:09:41;11.80;99.90
15916;DHT22;8057;47.830;-3.870;2023-04-24T20:13:52;11.80;99.90
15916;DHT22;8057;47.830;-3.870;2023-04-24T20:22:44;11.80;99.90
15916;DHT22;8057;47.830;-3.870;2023-04-24T20:26:54;11.70;99.90
15916;DHT22;8057;47.830;-3.870;2023-04-24T20:31:03;11.70;99.90
15916;DHT22;8057;47.830;-3.870;2023-04-24T20:35:13;11.70;99.90
15916;DHT22;8057;47.830;-3.870;2023-04-24T20:39:23;11.50;99.90
15916;DHT22;8057;47.830;-3.870;2023-04-24T20:43:33;11.50;99.90
15916;DHT22;8057;47.830;-3.870;2023-04-24T20:47:42;11.50;99.90
15916;DHT22;8057;47.830;-3.870;2023-04-24T20:51:51;11.40;99.90
15916;DHT22;8057;47.830;-3.870;2023-04-24T20:56:02;11.30;99.90
15916;DHT22;8057;47.830;-3.870;2023-04-24T21:00:12;11.30;99.90
15916;DHT22;8057;47.830;-3.870;2023-04-24T21:04:22;11.30;99.90
15916;DHT22;8057;47.830;-3.870;2023-04-24T21:08:31;11.30;99.90
15916;DHT22;8057;47.830;-3.870;2023-04-24T21:12:41;11.30;99.90
15916;DHT22;8057;47.830;-3.870;2023-04-24T21:16:50;11.10;99.90
15916;DHT22;8057;47.830;-3.870;2023-04-24T21:20:59;11.00;99.90
15916;DHT22;8057;47.830;-3.870;2023-04-24T21:25:10;10.90;99.90
15916;DHT22;8057;47.830;-3.870;2023-04-24T21:29:20;10.90;99.90
15916;DHT22;8057;47.830;-3.870;2023-04-24T21:33:30;10.90;99.90
15916;DHT22;8057;47.830;-3.870;2023-04-24T21:37:39;10.70;99.90
15916;DHT22;8057;47.830;-3.870;2023-04-24T21:41:48;10.60;99.90
15916;DHT22;8057;47.830;-3.870;2023-04-24T21:45:59;10.50;99.90
15916;DHT22;8057;47.830;-3.870;2023-04-24T21:50:09;10.40;99.90
15916;DHT22;8057;47.830;-3.870;2023-04-24T21:54:18;10.30;99.90
15916;DHT22;8057;47.830;-3.870;2023-04-24T21:58:28;10.20;99.90
15916;DHT22;8057;47.830;-3.870;2023-04-24T22:02:38;10.20;99.90
15916;DHT22;8057;47.830;-3.870;2023-04-24T22:06:49;10.00;99.90
15916;DHT22;8057;47.830;-3.870;2023-04-24T22:10:59;9.90;99.90
15916;DHT22;8057;47.830;-3.870;2023-04-24T22:15:10;9.80;99.90
15916;DHT22;8057;47.830;-3.870;2023-04-24T22:19:21;9.70;99.90
15916;DHT22;8057;47.830;-3.870;2023-04-24T22:23:32;9.60;99.90
15916;DHT22;8057;47.830;-3.870;2023-04-24T22:27:41;9.60;99.90
15916;DHT22;8057;47.830;-3.870;2023-04-24T22:31:50;9.50;99.90
15916;DHT22;8057;47.830;-3.870;2023-04-24T22:36:05;9.40;99.90
15916;DHT22;8057;47.830;-3.870;2023-04-24T22:40:14;9.40;99.90
15916;DHT22;8057;47.830;-3.870;2023-04-24T22:44:23;9.30;99.90
15916;DHT22;8057;47.830;-3.870;2023-04-24T22:48:32;9.30;99.90
15916;DHT22;8057;47.830;-3.870;2023-04-24T22:52:43;9.20;99.90
15916;DHT22;8057;47.830;-3.870;2023-04-24T22:56:52;9.10;99.90
15916;DHT22;8057;47.830;-3.870;2023-04-24T23:01:01;9.10;99.90
15916;DHT22;8057;47.830;-3.870;2023-04-24T23:05:10;9.00;99.90
15916;DHT22;8057;47.830;-3.870;2023-04-24T23:09:21;8.90;99.90
15916;DHT22;8057;47.830;-3.870;2023-04-24T23:13:30;8.90;99.90
15916;DHT22;8057;47.830;-3.870;2023-04-24T23:17:39;8.90;99.90
15916;DHT22;8057;47.830;-3.870;2023-04-24T23:21:49;8.80;99.90
15916;DHT22;8057;47.830;-3.870;2023-04-24T23:25:59;8.50;99.90
15916;DHT22;8057;47.830;-3.870;2023-04-24T23:30:09;8.50;99.90
15916;DHT22;8057;47.830;-3.870;2023-04-24T23:34:18;8.50;99.90
15916;DHT22;8057;47.830;-3.870;2023-04-24T23:38:27;8.50;99.90
15916;DHT22;8057;47.830;-3.870;2023-04-24T23:42:50;8.60;99.90
15916;DHT22;8057;47.830;-3.870;2023-04-24T23:47:12;8.60;99.90
15916;DHT22;8057;47.830;-3.870;2023-04-24T23:51:21;8.70;99.90
15916;DHT22;8057;47.830;-3.870;2023-04-24T23:55:31;8.80;99.90
15916;DHT22;8057;47.830;-3.870;2023-04-24T23:59:41;8.80;99.90
